Time;durP1;ratioP1;P1;durP2;ratioP2;P2;SDS_P1;SDS_P2;PMS_P1;PMS_P2;Temp;Humidity;BMP_temperature;BMP_pressure;BME280_temperature;BME280_humidity;BME280_pressure;Samples;Min_cycle;Max_cycle;Signal;HPM_P1;HPM_P2
2022/09/25 00:00:54;;;;;;;3.47;3.20;;;11.10;99.90;;;;;;4988729;28;20453;-47
2022/09/25 00:03:24;;;;;;;3.87;3.47;;;11.10;99.90;;;;;;4988329;28;20448;-48
2022/09/25 00:05:51;;;;;;;3.60;2.97;;;11.10;99.90;;;;;;4988491;28;20978;-48
2022/09/25 00:08:19;;;;;;;3.47;2.90;;;11.10;99.90;;;;;;4988439;28;20501;-48
2022/09/25 00:10:47;;;;;;;3.17;2.87;;;11.00;99.90;;;;;;4988828;28;20585;-48
2022/09/25 00:13:15;;;;;;;4.77;3.00;;;10.90;99.90;;;;;;4988294;28;20514;-48
2022/09/25 00:15:47;;;;;;;3.77;3.47;;;10.90;99.90;;;;;;4988447;28;20525;-48
2022/09/25 00:18:14;;;;;;;4.03;3.30;;;11.00;99.90;;;;;;4988434;28;20967;-47
2022/09/25 00:20:41;;;;;;;5.07;3.57;;;11.00;99.90;;;;;;4988358;28;20877;-48
2022/09/25 00:23:08;;;;;;;3.43;3.10;;;11.00;99.90;;;;;;4988280;28;20467;-48
2022/09/25 00:25:36;;;;;;;3.90;3.50;;;11.00;99.90;;;;;;4988404;28;20950;-49
2022/09/25 00:28:03;;;;;;;3.43;3.13;;;10.90;99.90;;;;;;4988253;28;20529;-48
2022/09/25 00:30:29;;;;;;;6.20;3.20;;;11.00;99.90;;;;;;4988426;28;20486;-49
2022/09/25 00:32:56;;;;;;;4.27;3.13;;;11.00;99.90;;;;;;4988070;28;20482;-47
2022/09/25 00:35:23;;;;;;;5.27;3.90;;;11.00;99.90;;;;;;4988543;28;20476;-47
2022/09/25 00:37:51;;;;;;;4.70;4.37;;;11.00;99.90;;;;;;4988338;28;20549;-50
2022/09/25 00:40:19;;;;;;;4.27;3.87;;;11.00;99.90;;;;;;4988014;28;20528;-49
2022/09/25 00:42:46;;;;;;;4.07;3.67;;;10.80;99.90;;;;;;4988187;28;20447;-48
2022/09/25 00:45:18;;;;;;;4.40;4.00;;;10.70;99.90;;;;;;4988121;28;20480;-48
2022/09/25 00:47:58;;;;;;;4.07;3.70;;;10.70;99.90;;;;;;4988197;28;20516;-50
2022/09/25 00:50:32;;;;;;;4.30;3.90;;;10.70;99.90;;;;;;4987825;28;20484;-48
2022/09/25 00:53:05;;;;;;;3.40;3.10;;;10.90;99.90;;;;;;4991109;28;20448;-47
2022/09/25 00:55:33;;;;;;;3.23;2.87;;;11.00;99.90;;;;;;4991687;28;20441;-48
2022/09/25 00:58:02;;;;;;;3.10;2.80;;;11.10;99.90;;;;;;4991144;28;20469;-48
2022/09/25 01:00:30;;;;;;;3.80;2.60;;;11.20;99.90;;;;;;4991212;28;20452;-48
2022/09/25 01:02:58;;;;;;;3.23;2.93;;;11.20;99.90;;;;;;4991295;28;20525;-48
2022/09/25 01:05:28;;;;;;;3.03;2.73;;;11.20;99.90;;;;;;4991246;28;20484;-48
2022/09/25 01:07:57;;;;;;;3.00;2.50;;;11.20;99.90;;;;;;4991193;28;20486;-48
2022/09/25 01:10:26;;;;;;;3.13;2.93;;;11.30;99.90;;;;;;4990909;28;20513;-48
2022/09/25 01:12:55;;;;;;;4.20;3.80;;;11.30;99.90;;;;;;4991082;28;20445;-47
2022/09/25 01:15:28;;;;;;;4.50;4.10;;;11.30;99.90;;;;;;4991317;28;20973;-48
2022/09/25 01:18:03;;;;;;;3.70;3.37;;;11.30;99.90;;;;;;4990978;28;20895;-50
2022/09/25 01:21:05;;;;;;;3.57;2.90;;;11.20;99.90;;;;;;4991539;28;20527;-48
2022/09/25 01:24:02;;;;;;;4.43;3.63;;;11.00;99.90;;;;;;4993736;28;20458;-48
2022/09/25 01:27:06;;;;;;;4.33;3.87;;;10.70;99.90;;;;;;4990403;28;20924;-50
2022/09/25 01:29:39;;;;;;;3.40;3.10;;;10.70;99.90;;;;;;4997037;28;20445;-48
2022/09/25 01:32:12;;;;;;;5.00;4.10;;;10.60;99.90;;;;;;4990882;28;20548;-49
2022/09/25 01:34:48;;;;;;;3.37;3.07;;;10.50;99.90;;;;;;4990441;28;20505;-48
2022/09/25 01:37:21;;;;;;;3.43;3.13;;;10.40;99.90;;;;;;4990816;28;20826;-47
2022/09/25 01:39:57;;;;;;;2.80;2.60;;;10.60;99.90;;;;;;4990764;28;20472;-48
2022/09/25 01:42:29;;;;;;;3.80;3.40;;;10.70;99.90;;;;;;4990432;28;20520;-49
2022/09/25 01:45:02;;;;;;;3.57;2.67;;;10.70;99.90;;;;;;4990412;28;20532;-48
2022/09/25 01:47:30;;;;;;;3.93;3.53;;;10.80;99.90;;;;;;4991902;28;20472;-50
2022/09/25 01:50:00;;;;;;;3.90;3.33;;;10.90;99.90;;;;;;4990840;28;20524;-48
2022/09/25 01:52:33;;;;;;;4.13;3.27;;;10.90;99.90;;;;;;4990443;28;20530;-48
2022/09/25 01:55:06;;;;;;;4.17;2.70;;;10.90;99.90;;;;;;4990311;28;20946;-48
2022/09/25 01:57:40;;;;;;;5.63;3.30;;;11.00;99.90;;;;;;4990619;28;20557;-51
2022/09/25 02:00:11;;;;;;;3.27;2.53;;;10.90;99.90;;;;;;4990222;28;20806;-47
2022/09/25 02:02:44;;;;;;;4.03;2.83;;;10.90;99.90;;;;;;4989595;28;20469;-48
2022/09/25 02:05:17;;;;;;;4.50;3.27;;;10.80;99.90;;;;;;4990204;28;20453;-49
2022/09/25 02:07:48;;;;;;;3.20;2.90;;;10.80;99.90;;;;;;4990155;28;20548;-48
2022/09/25 02:10:20;;;;;;;3.97;2.70;;;10.80;99.90;;;;;;4990164;28;20483;-47
2022/09/25 02:12:51;;;;;;;3.27;2.97;;;10.90;99.90;;;;;;4990484;28;20474;-48
2022/09/25 02:15:25;;;;;;;4.57;3.17;;;11.00;99.90;;;;;;4990176;28;20595;-48
2022/09/25 02:20:43;;;;;;;2.60;2.10;;;11.00;99.90;;;;;;4989983;28;20904;-48
2022/09/25 02:23:22;;;;;;;3.17;2.87;;;11.00;99.90;;;;;;4989395;28;20955;-47
2022/09/25 02:25:55;;;;;;;3.13;2.33;;;11.10;99.90;;;;;;4989458;28;21028;-49
2022/09/25 02:28:22;;;;;;;3.23;2.90;;;11.00;99.90;;;;;;4990188;28;20493;-48
2022/09/25 02:30:54;;;;;;;3.40;3.10;;;11.00;99.90;;;;;;4990099;28;20483;-48
2022/09/25 02:33:21;;;;;;;3.10;2.77;;;11.00;99.90;;;;;;4989735;28;20516;-48
2022/09/25 02:35:48;;;;;;;2.57;2.37;;;11.00;99.90;;;;;;4989680;28;20453;-48
2022/09/25 02:38:16;;;;;;;2.67;2.47;;;10.90;99.90;;;;;;4989904;28;20623;-47
2022/09/25 02:40:50;;;;;;;2.50;2.30;;;11.00;99.90;;;;;;4989951;28;20488;-47
2022/09/25 02:43:31;;;;;;;2.47;2.27;;;11.00;99.90;;;;;;4989871;28;20530;-48
2022/09/25 02:46:09;;;;;;;3.77;2.90;;;11.10;99.90;;;;;;4989616;28;20543;-50
2022/09/25 02:48:49;;;;;;;3.03;2.73;;;11.00;99.90;;;;;;4990036;28;20457;-48
2022/09/25 02:51:22;;;;;;;3.27;2.97;;;10.90;99.90;;;;;;4989634;28;20516;-48
2022/09/25 02:53:55;;;;;;;3.60;3.00;;;10.90;99.90;;;;;;4989319;28;20481;-48
2022/09/25 02:56:31;;;;;;;3.83;3.10;;;10.90;99.90;;;;;;4989748;28;20497;-49
2022/09/25 02:59:04;;;;;;;3.33;3.03;;;10.90;99.90;;;;;;4989420;28;20497;-48
2022/09/25 03:01:34;;;;;;;3.30;2.60;;;10.90;99.90;;;;;;4989492;28;20439;-48
2022/09/25 03:04:04;;;;;;;3.37;2.90;;;11.00;99.90;;;;;;4989191;28;20947;-50
2022/09/25 03:06:31;;;;;;;3.17;2.87;;;11.00;99.90;;;;;;4989337;28;20490;-48
2022/09/25 03:09:00;;;;;;;2.63;2.30;;;11.00;99.90;;;;;;4989221;28;20487;-48
2022/09/25 03:11:28;;;;;;;2.50;2.30;;;10.90;99.90;;;;;;4989515;28;20484;-49
2022/09/25 03:13:58;;;;;;;2.63;2.23;;;10.60;99.90;;;;;;4989046;28;20970;-48
2022/09/25 03:16:34;;;;;;;2.83;2.40;;;10.30;99.90;;;;;;4989925;28;20549;-49
2022/09/25 03:19:01;;;;;;;2.20;2.00;;;10.30;99.90;;;;;;4990157;28;20447;-47
2022/09/25 03:21:28;;;;;;;2.80;2.37;;;10.60;99.90;;;;;;4990315;28;20537;-47
2022/09/25 03:23:56;;;;;;;2.97;2.40;;;10.60;99.90;;;;;;4989362;28;20533;-47
2022/09/25 03:26:24;;;;;;;3.50;2.10;;;10.70;99.90;;;;;;4990090;28;20479;-49
2022/09/25 03:28:52;;;;;;;2.50;2.30;;;10.80;99.90;;;;;;4989466;28;20449;-49
2022/09/25 03:31:19;;;;;;;1.93;1.60;;;10.80;99.90;;;;;;4989581;28;20577;-47
2022/09/25 03:33:48;;;;;;;2.10;1.90;;;10.70;99.90;;;;;;4989015;28;20446;-47
2022/09/25 03:36:17;;;;;;;2.73;2.13;;;10.60;99.90;;;;;;4989225;28;20497;-47
2022/09/25 03:38:45;;;;;;;2.80;2.57;;;10.40;99.90;;;;;;4989357;28;20452;-48
2022/09/25 03:41:15;;;;;;;2.67;2.47;;;10.20;99.90;;;;;;4989028;28;20445;-50
2022/09/25 03:43:44;;;;;;;3.17;2.50;;;10.40;99.90;;;;;;4991283;28;20489;-47
2022/09/25 03:46:13;;;;;;;2.80;2.60;;;10.50;99.90;;;;;;4988652;28;20489;-47
2022/09/25 03:48:41;;;;;;;2.93;2.33;;;10.60;99.90;;;;;;4988627;28;20450;-50
2022/09/25 03:51:09;;;;;;;2.33;2.13;;;10.50;99.90;;;;;;4988942;28;20586;-47
2022/09/25 03:53:37;;;;;;;3.03;2.57;;;10.60;99.90;;;;;;4988735;28;20528;-50
2022/09/25 03:56:07;;;;;;;4.53;2.30;;;10.50;99.90;;;;;;4988561;28;20502;-48
2022/09/25 03:58:35;;;;;;;2.33;2.10;;;10.40;99.90;;;;;;4988335;28;20483;-48
2022/09/25 04:01:02;;;;;;;2.50;1.80;;;10.30;99.90;;;;;;4988530;28;20483;-48
2022/09/25 04:03:30;;;;;;;2.63;2.07;;;10.40;99.90;;;;;;4988331;28;20900;-50
2022/09/25 04:05:58;;;;;;;4.30;2.17;;;10.50;99.90;;;;;;4988432;28;20556;-47
2022/09/25 04:08:28;;;;;;;3.93;2.13;;;10.50;99.90;;;;;;4988468;28;20475;-50
2022/09/25 04:10:58;;;;;;;2.37;2.17;;;10.50;99.90;;;;;;4988521;28;20921;-47
2022/09/25 04:13:25;;;;;;;2.70;2.50;;;10.60;99.90;;;;;;4988328;28;20449;-48
2022/09/25 04:15:52;;;;;;;3.10;2.30;;;10.60;99.90;;;;;;4988336;28;20869;-48
2022/09/25 04:18:19;;;;;;;2.83;2.57;;;10.30;99.90;;;;;;4988523;28;20716;-47
2022/09/25 04:20:46;;;;;;;2.63;2.43;;;10.10;99.90;;;;;;4988165;28;20445;-51
2022/09/25 04:23:13;;;;;;;2.60;2.33;;;10.20;99.90;;;;;;4988140;28;20886;-48
2022/09/25 04:25:41;;;;;;;2.63;2.20;;;10.30;99.90;;;;;;4988305;28;20473;-47
2022/09/25 04:28:09;;;;;;;4.83;2.77;;;10.50;99.90;;;;;;4991832;28;20453;-47
2022/09/25 04:30:36;;;;;;;3.27;2.30;;;10.50;99.90;;;;;;4991768;28;20541;-49
2022/09/25 04:35:47;;;;;;;2.90;2.50;;;10.60;99.90;;;;;;4991745;28;20602;-48
2022/09/25 04:38:14;;;;;;;3.53;2.90;;;10.70;99.90;;;;;;4991452;28;20823;-49
2022/09/25 04:40:44;;;;;;;2.53;2.33;;;10.60;99.90;;;;;;4991369;28;20513;-50
2022/09/25 04:43:11;;;;;;;2.63;2.23;;;10.40;99.90;;;;;;4991615;28;20796;-47
2022/09/25 04:45:38;;;;;;;2.83;2.40;;;10.50;99.90;;;;;;4991508;28;20472;-47
2022/09/25 04:48:06;;;;;;;5.13;3.13;;;10.50;99.90;;;;;;4991407;28;20492;-47
2022/09/25 04:50:34;;;;;;;2.90;2.60;;;10.60;99.90;;;;;;4991347;28;20476;-49
2022/09/25 04:53:01;;;;;;;2.90;2.70;;;10.60;99.90;;;;;;4990899;28;20521;-48
2022/09/25 04:55:29;;;;;;;3.43;2.97;;;10.60;99.90;;;;;;4991613;28;20448;-50
2022/09/25 04:57:59;;;;;;;3.53;2.40;;;10.50;99.90;;;;;;4990724;28;20500;-49
2022/09/25 05:00:28;;;;;;;5.57;4.10;;;10.60;99.90;;;;;;4991399;28;20444;-48
2022/09/25 05:02:55;;;;;;;3.70;2.43;;;10.60;99.90;;;;;;4991231;28;20531;-48
2022/09/25 05:05:29;;;;;;;3.47;2.30;;;10.50;99.90;;;;;;4991444;28;20547;-47
2022/09/25 05:07:57;;;;;;;4.83;2.67;;;10.50;99.90;;;;;;4991079;28;20473;-47
2022/09/25 05:10:26;;;;;;;2.77;2.47;;;10.60;99.90;;;;;;4991115;28;20476;-47
2022/09/25 05:12:57;;;;;;;2.60;2.30;;;10.40;99.90;;;;;;4991090;28;21001;-45
2022/09/25 05:15:24;;;;;;;3.60;2.80;;;10.30;99.90;;;;;;4992029;28;20452;-48
2022/09/25 05:17:59;;;;;;;4.63;2.57;;;10.40;99.90;;;;;;4991230;28;20914;-48
2022/09/25 05:20:26;;;;;;;7.90;5.30;;;10.40;99.90;;;;;;4990956;28;20485;-48
2022/09/25 05:22:55;;;;;;;7.97;3.70;;;10.40;99.90;;;;;;4990823;28;20876;-45
2022/09/25 05:25:23;;;;;;;3.63;2.60;;;10.50;99.90;;;;;;4990902;28;20533;-46
2022/09/25 05:27:52;;;;;;;2.53;2.33;;;10.60;99.90;;;;;;4990917;28;21002;-48
2022/09/25 05:30:21;;;;;;;2.90;2.60;;;10.60;99.90;;;;;;4991163;28;20542;-47
2022/09/25 05:32:49;;;;;;;2.83;2.63;;;10.60;99.90;;;;;;4990993;28;20480;-47
2022/09/25 05:35:17;;;;;;;4.27;2.03;;;10.40;99.90;;;;;;4990816;28;20541;-48
2022/09/25 05:37:44;;;;;;;2.30;2.10;;;10.30;99.90;;;;;;4989366;28;20468;-48
2022/09/25 05:40:11;;;;;;;2.33;2.10;;;10.30;99.90;;;;;;4990919;28;20477;-50
2022/09/25 05:42:38;;;;;;;2.50;2.30;;;10.30;99.90;;;;;;4990553;28;20527;-47
2022/09/25 05:45:06;;;;;;;3.00;2.57;;;10.50;99.90;;;;;;4990431;28;20944;-48
2022/09/25 05:47:34;;;;;;;2.50;2.17;;;10.40;99.90;;;;;;4990502;28;20511;-47
2022/09/25 05:50:03;;;;;;;6.57;2.73;;;10.40;99.90;;;;;;4990524;28;20484;-48
2022/09/25 05:52:30;;;;;;;6.17;2.73;;;10.50;99.90;;;;;;4991008;28;20483;-50
2022/09/25 05:54:57;;;;;;;2.30;2.10;;;10.60;99.90;;;;;;4990138;28;20448;-48
2022/09/25 05:57:24;;;;;;;2.73;2.53;;;10.60;99.90;;;;;;4990471;28;20892;-48
2022/09/25 05:59:51;;;;;;;4.20;3.80;;;10.60;99.90;;;;;;4990058;28;20445;-48
2022/09/25 06:02:18;;;;;;;4.97;4.57;;;10.60;99.90;;;;;;4990337;28;20437;-47
2022/09/25 06:04:46;;;;;;;5.10;4.70;;;10.40;99.90;;;;;;4990853;28;20481;-48
2022/09/25 06:07:13;;;;;;;4.67;4.23;;;10.20;99.90;;;;;;4991660;28;20472;-48
2022/09/25 06:09:40;;;;;;;5.10;4.60;;;10.10;99.90;;;;;;4991769;28;20449;-48
2022/09/25 06:12:07;;;;;;;7.27;5.00;;;10.20;99.90;;;;;;4991032;28;21021;-48
2022/09/25 06:14:35;;;;;;;7.50;4.97;;;10.40;99.90;;;;;;4990182;28;20449;-49
2022/09/25 06:17:03;;;;;;;5.67;5.20;;;10.40;99.90;;;;;;4991144;28;20465;-49
2022/09/25 06:19:30;;;;;;;4.80;4.30;;;10.50;99.90;;;;;;4990586;28;20871;-51
2022/09/25 06:21:58;;;;;;;4.73;4.33;;;10.50;99.90;;;;;;4990324;28;20951;-48
2022/09/25 06:24:25;;;;;;;4.90;4.40;;;10.50;99.90;;;;;;4990025;28;20523;-49
2022/09/25 06:26:52;;;;;;;4.53;4.13;;;10.50;99.90;;;;;;4990300;28;20561;-50
2022/09/25 06:29:19;;;;;;;3.93;3.57;;;10.60;99.90;;;;;;4990092;28;21001;-50
2022/09/25 06:31:46;;;;;;;3.97;3.60;;;10.70;99.90;;;;;;4989949;28;20499;-48
2022/09/25 06:34:13;;;;;;;4.23;3.87;;;10.70;99.90;;;;;;4990028;28;20480;-49
2022/09/25 06:36:41;;;;;;;5.47;4.00;;;10.70;99.90;;;;;;4990403;28;20813;-49
2022/09/25 06:39:09;;;;;;;10.07;8.50;;;10.80;99.90;;;;;;4990145;28;20813;-48
2022/09/25 06:41:36;;;;;;;9.90;8.00;;;10.80;99.90;;;;;;4990078;28;20513;-49
2022/09/25 06:44:03;;;;;;;7.30;5.83;;;10.60;99.90;;;;;;4989818;28;20444;-50
2022/09/25 06:46:30;;;;;;;5.40;4.37;;;10.70;99.90;;;;;;4989538;28;20552;-49
2022/09/25 06:48:57;;;;;;;5.30;4.90;;;10.60;99.90;;;;;;4989768;28;20458;-48
2022/09/25 06:51:31;;;;;;;5.23;4.77;;;10.70;99.90;;;;;;4989855;28;20444;-49
2022/09/25 06:53:58;;;;;;;7.00;6.00;;;11.00;99.90;;;;;;4989621;28;20481;-51
2022/09/25 06:56:26;;;;;;;8.40;7.27;;;11.00;99.90;;;;;;4989543;28;20963;-48
2022/09/25 06:58:53;;;;;;;6.83;6.23;;;11.10;99.90;;;;;;4989391;28;20474;-49
2022/09/25 07:01:20;;;;;;;6.70;6.07;;;11.00;99.90;;;;;;4989796;28;20540;-50
2022/09/25 07:03:48;;;;;;;6.60;6.00;;;10.80;99.90;;;;;;4989954;28;20527;-49
2022/09/25 07:06:16;;;;;;;6.47;5.67;;;10.60;99.90;;;;;;4989302;28;20849;-51
2022/09/25 07:08:46;;;;;;;8.20;7.43;;;10.50;99.90;;;;;;4989699;28;20507;-49
2022/09/25 07:11:15;;;;;;;7.93;7.13;;;10.60;99.90;;;;;;4990029;28;20805;-49
2022/09/25 07:13:43;;;;;;;7.63;6.90;;;10.60;99.90;;;;;;4989167;28;20568;-48
2022/09/25 07:16:13;;;;;;;6.17;5.57;;;10.80;99.90;;;;;;4989271;28;20503;-49
2022/09/25 07:18:40;;;;;;;7.07;6.37;;;10.80;99.90;;;;;;4989358;28;20476;-49
2022/09/25 07:21:10;;;;;;;6.10;5.57;;;11.00;99.90;;;;;;4988705;28;20508;-52
2022/09/25 07:23:37;;;;;;;6.40;5.80;;;11.10;99.90;;;;;;4988985;28;20851;-49
2022/09/25 07:26:07;;;;;;;9.70;5.47;;;11.00;99.90;;;;;;4989548;28;20893;-49
2022/09/25 07:28:33;;;;;;;6.27;5.70;;;11.00;99.90;;;;;;4989469;28;20440;-49
2022/09/25 07:31:12;;;;;;;6.20;5.10;;;11.00;99.90;;;;;;4989315;28;20445;-49
2022/09/25 07:33:39;;;;;;;4.70;4.30;;;11.10;99.90;;;;;;4989285;28;20533;-49
2022/09/25 07:36:07;;;;;;;4.50;4.03;;;11.00;99.90;;;;;;4989394;28;20549;-49
2022/09/25 07:38:35;;;;;;;6.13;5.30;;;10.70;99.90;;;;;;4989173;28;20450;-49
2022/09/25 07:41:05;;;;;;;5.80;5.20;;;10.50;99.90;;;;;;4989519;28;20450;-49
2022/09/25 07:43:32;;;;;;;7.23;6.53;;;10.50;99.90;;;;;;4989060;28;20441;-49
2022/09/25 07:45:59;;;;;;;6.67;5.97;;;10.60;99.90;;;;;;4989016;28;20521;-49
2022/09/25 07:48:29;;;;;;;8.90;6.23;;;10.70;99.90;;;;;;4990019;28;20966;-49
2022/09/25 07:51:00;;;;;;;4.50;4.10;;;10.70;99.90;;;;;;4988965;28;20477;-49
2022/09/25 07:53:27;;;;;;;4.63;4.20;;;10.80;99.90;;;;;;4988706;28;20484;-49
2022/09/25 07:55:57;;;;;;;5.00;4.50;;;10.80;99.90;;;;;;4988722;28;20523;-50
2022/09/25 07:58:24;;;;;;;3.43;3.13;;;11.00;99.90;;;;;;4988205;28;20531;-48
2022/09/25 08:00:52;;;;;;;3.70;3.40;;;11.10;99.90;;;;;;4987668;28;20460;-48
2022/09/25 08:03:19;;;;;;;4.17;3.30;;;11.30;99.90;;;;;;4988388;28;20448;-48
2022/09/25 08:05:47;;;;;;;3.47;3.17;;;11.30;99.90;;;;;;4988570;28;21007;-48
2022/09/25 08:08:14;;;;;;;4.50;3.83;;;11.40;99.90;;;;;;4988590;28;20495;-49
2022/09/25 08:10:41;;;;;;;3.83;3.13;;;11.50;99.90;;;;;;4988491;28;20861;-48
2022/09/25 08:13:08;;;;;;;4.10;3.57;;;11.40;99.90;;;;;;4988357;28;20486;-49
2022/09/25 08:15:35;;;;;;;2.77;2.23;;;11.60;99.90;;;;;;4988422;28;20455;-50
2022/09/25 08:18:02;;;;;;;3.00;2.80;;;11.60;99.90;;;;;;4988420;28;20513;-49
2022/09/25 08:20:29;;;;;;;3.63;3.33;;;11.60;99.90;;;;;;4988525;28;20484;-48
2022/09/25 08:22:58;;;;;;;3.37;3.07;;;11.60;99.90;;;;;;4987854;28;20843;-50
2022/09/25 08:25:25;;;;;;;2.87;2.60;;;11.60;99.90;;;;;;4988081;28;20445;-49
2022/09/25 08:27:52;;;;;;;3.17;2.97;;;11.70;99.90;;;;;;4988304;28;20474;-52
2022/09/25 08:30:18;;;;;;;3.33;3.03;;;11.80;99.90;;;;;;4988266;28;20943;-48
2022/09/25 08:32:45;;;;;;;3.20;2.63;;;11.90;99.90;;;;;;4988081;28;20476;-48
2022/09/25 08:35:13;;;;;;;4.23;3.10;;;12.00;99.90;;;;;;4988861;28;20934;-48
2022/09/25 08:37:41;;;;;;;3.70;3.40;;;12.10;99.90;;;;;;4988454;28;20487;-47
2022/09/25 08:40:18;;;;;;;3.90;3.20;;;12.20;99.90;;;;;;4988505;28;20445;-49
2022/09/25 08:42:48;;;;;;;4.10;2.93;;;12.20;99.90;;;;;;4988559;28;20947;-48
2022/09/25 08:51:05;;;;;;;3.40;3.10;;;12.50;99.90;;;;;;4989047;28;20430;-50
2022/09/25 08:53:34;;;;;;;3.17;2.73;;;12.50;99.90;;;;;;4988018;28;20480;-48
2022/09/25 08:56:20;;;;;;;3.23;2.93;;;12.50;99.90;;;;;;4988330;28;20473;-48
2022/09/25 08:58:52;;;;;;;3.70;2.93;;;12.70;99.90;;;;;;4988210;28;20446;-49
2022/09/25 09:01:23;;;;;;;3.17;2.80;;;12.70;99.90;;;;;;4988354;28;20479;-49
2022/09/25 09:03:56;;;;;;;3.10;2.90;;;12.80;99.90;;;;;;4988004;28;20822;-51
2022/09/25 09:06:26;;;;;;;3.03;2.40;;;13.00;99.90;;;;;;4987948;28;20890;-49
2022/09/25 09:08:58;;;;;;;3.20;2.43;;;13.00;99.90;;;;;;4987922;28;20493;-49
2022/09/25 09:11:32;;;;;;;3.43;2.80;;;13.10;99.90;;;;;;4988120;28;20449;-49
2022/09/25 09:14:04;;;;;;;2.53;2.33;;;13.10;99.90;;;;;;4990885;28;20516;-49
2022/09/25 09:16:38;;;;;;;3.17;2.87;;;13.20;99.90;;;;;;4990910;28;20462;-50
2022/09/25 09:19:07;;;;;;;2.60;2.40;;;13.30;99.90;;;;;;4991383;28;20526;-50
2022/09/25 09:21:36;;;;;;;2.83;2.27;;;13.40;99.90;;;;;;4991111;28;20485;-49
2022/09/25 09:24:14;;;;;;;2.60;2.03;;;13.60;99.90;;;;;;4990345;28;20822;-53
2022/09/25 09:26:57;;;;;;;2.53;2.33;;;13.80;99.90;;;;;;4991144;28;20513;-49
2022/09/25 09:29:40;;;;;;;2.63;2.07;;;14.00;99.90;;;;;;4990891;28;20514;-49
2022/09/25 09:32:25;;;;;;;2.60;2.40;;;14.10;99.90;;;;;;4991191;28;20564;-50
2022/09/25 09:35:06;;;;;;;2.00;1.80;;;14.40;99.90;;;;;;4990510;28;20973;-49
2022/09/25 09:37:42;;;;;;;3.23;2.23;;;14.40;99.90;;;;;;4990890;28;20900;-50
2022/09/25 09:40:23;;;;;;;2.97;2.50;;;14.30;99.90;;;;;;4990677;28;20435;-47
2022/09/25 09:43:03;;;;;;;2.57;2.37;;;14.40;99.90;;;;;;4991188;28;20464;-48
2022/09/25 09:45:39;;;;;;;2.30;2.10;;;14.30;99.90;;;;;;4990615;28;20947;-48
2022/09/25 09:48:14;;;;;;;2.40;2.20;;;14.20;99.90;;;;;;4990584;28;20457;-48
2022/09/25 09:50:46;;;;;;;2.73;2.20;;;14.20;99.90;;;;;;4990531;28;20483;-51
2022/09/25 09:53:23;;;;;;;2.80;2.40;;;14.20;99.90;;;;;;4990530;28;20541;-48
2022/09/25 09:55:53;;;;;;;3.27;2.50;;;14.20;99.90;;;;;;4991316;28;20479;-47
2022/09/25 09:58:24;;;;;;;6.00;3.30;;;14.20;99.90;;;;;;4990264;28;20444;-49
2022/09/25 10:00:52;;;;;;;2.80;2.60;;;14.20;99.90;;;;;;4991023;28;21131;-48
2022/09/25 10:03:23;;;;;;;2.80;2.47;;;14.20;99.90;;;;;;4990651;28;20927;-48
2022/09/25 10:05:52;;;;;;;3.10;2.70;;;14.20;99.90;;;;;;4990310;28;20611;-49
2022/09/25 10:08:20;;;;;;;2.37;2.10;;;14.30;99.90;;;;;;4990170;28;20494;-48
2022/09/25 10:10:52;;;;;;;2.83;2.60;;;14.50;99.90;;;;;;4990995;28;20526;-48
2022/09/25 10:13:23;;;;;;;2.87;2.67;;;14.70;99.90;;;;;;4990116;28;20571;-47
2022/09/25 10:15:53;;;;;;;3.10;2.80;;;14.60;99.90;;;;;;4990209;28;20448;-48
2022/09/25 10:18:22;;;;;;;4.73;4.17;;;14.60;99.90;;;;;;4990534;28;20535;-50
2022/09/25 10:20:57;;;;;;;6.53;5.90;;;14.60;99.90;;;;;;4990075;28;20869;-47
2022/09/25 10:23:35;;;;;;;3.80;3.50;;;14.70;99.90;;;;;;4989339;28;20526;-48
2022/09/25 10:26:02;;;;;;;2.93;2.73;;;14.70;99.90;;;;;;4989667;28;20499;-48
2022/09/25 10:28:33;;;;;;;3.67;3.00;;;14.80;99.90;;;;;;4989786;28;20459;-50
2022/09/25 10:31:02;;;;;;;3.87;3.47;;;14.80;99.90;;;;;;4990168;28;20472;-48
2022/09/25 10:33:31;;;;;;;3.73;3.43;;;14.90;99.90;;;;;;4989912;28;20480;-48
2022/09/25 10:35:58;;;;;;;4.50;3.90;;;15.00;99.90;;;;;;4990304;28;20583;-48
2022/09/25 10:38:33;;;;;;;3.77;3.47;;;14.90;99.90;;;;;;4989815;28;20962;-48
2022/09/25 10:41:03;;;;;;;4.50;3.90;;;14.90;99.90;;;;;;4989953;28;20543;-49
2022/09/25 10:43:32;;;;;;;4.23;3.60;;;15.00;99.90;;;;;;4990140;28;20481;-48
2022/09/25 10:46:09;;;;;;;4.30;3.90;;;15.00;99.90;;;;;;4990516;28;20525;-48
2022/09/25 10:51:22;;;;;;;2.93;2.63;;;15.00;99.90;;;;;;4989894;28;20516;-48
2022/09/25 10:53:50;;;;;;;9.50;7.80;;;15.00;99.90;;;;;;4989720;28;20593;-50
2022/09/25 10:56:25;;;;;;;4.37;3.70;;;15.00;99.90;;;;;;4989714;28;20522;-48
2022/09/25 10:58:57;;;;;;;3.53;3.23;;;15.00;99.90;;;;;;4989642;28;20459;-47
2022/09/25 11:01:33;;;;;;;3.90;3.60;;;15.10;99.90;;;;;;4989657;28;20453;-48
2022/09/25 11:04:05;;;;;;;2.83;2.53;;;15.00;99.90;;;;;;4989664;28;20464;-47
2022/09/25 11:06:34;;;;;;;3.40;3.07;;;15.10;99.90;;;;;;4989710;28;20575;-48
2022/09/25 11:09:07;;;;;;;3.40;3.13;;;15.00;99.90;;;;;;4989472;28;20495;-48
2022/09/25 11:11:36;;;;;;;3.70;3.40;;;15.00;99.90;;;;;;4989306;28;20969;-48
2022/09/25 11:14:07;;;;;;;3.37;3.07;;;15.00;99.90;;;;;;4989212;28;20486;-48
2022/09/25 11:16:51;;;;;;;4.17;3.77;;;15.10;99.90;;;;;;4989270;28;20559;-48
2022/09/25 11:19:27;;;;;;;3.77;3.47;;;15.20;99.90;;;;;;4989601;28;20483;-49
2022/09/25 11:22:00;;;;;;;3.57;3.27;;;15.20;99.90;;;;;;4989367;28;20505;-48
2022/09/25 11:24:39;;;;;;;3.23;2.93;;;15.20;99.90;;;;;;4988378;28;20527;-48
2022/09/25 11:27:12;;;;;;;3.17;2.87;;;15.10;99.90;;;;;;4989314;28;20472;-48
2022/09/25 11:29:49;;;;;;;3.53;3.23;;;15.20;99.90;;;;;;4989128;28;20525;-48
2022/09/25 11:32:23;;;;;;;3.90;3.10;;;15.20;99.90;;;;;;4988906;28;20480;-49
2022/09/25 11:35:04;;;;;;;5.37;4.27;;;15.30;99.90;;;;;;4988979;28;20566;-47
2022/09/25 11:37:39;;;;;;;3.97;3.67;;;15.20;99.90;;;;;;4989005;28;20546;-47
2022/09/25 11:43:18;;;;;;;3.37;2.83;;;15.40;99.90;;;;;;4988978;28;20420;-47
2022/09/25 11:45:51;;;;;;;3.30;2.97;;;15.50;99.90;;;;;;4988903;28;21037;-48
2022/09/25 11:48:24;;;;;;;3.40;2.67;;;15.70;99.90;;;;;;4988775;28;20521;-48
2022/09/25 11:51:02;;;;;;;3.30;3.00;;;15.90;99.90;;;;;;4988793;28;20930;-47
2022/09/25 11:53:37;;;;;;;3.73;2.63;;;15.80;99.90;;;;;;4988622;28;20571;-48
2022/09/25 11:56:17;;;;;;;3.40;2.73;;;15.70;99.90;;;;;;4988642;28;20486;-47
2022/09/25 11:58:55;;;;;;;2.73;2.53;;;15.90;99.90;;;;;;4988793;28;20448;-47
2022/09/25 12:01:34;;;;;;;7.20;3.17;;;16.10;99.90;;;;;;4988880;28;20480;-49
2022/09/25 12:04:39;;;;;;;2.53;2.33;;;16.00;99.90;;;;;;4989177;28;20483;-48
2022/09/25 12:07:27;;;;;;;3.70;2.77;;;15.90;99.90;;;;;;5000176;28;20500;-48
2022/09/25 12:10:07;;;;;;;2.83;2.57;;;15.90;99.90;;;;;;4988806;28;20451;-49
2022/09/25 12:12:43;;;;;;;3.03;2.73;;;16.00;99.90;;;;;;4988813;28;20523;-49
2022/09/25 12:15:20;;;;;;;2.90;2.57;;;15.80;99.90;;;;;;4988466;28;20981;-49
2022/09/25 12:17:55;;;;;;;2.70;2.30;;;15.80;99.90;;;;;;4988515;28;20974;-48
2022/09/25 12:20:26;;;;;;;3.17;2.87;;;16.00;99.90;;;;;;4988547;28;20454;-48
2022/09/25 12:23:06;;;;;;;2.80;2.60;;;16.00;99.90;;;;;;4988364;28;20871;-51
2022/09/25 12:25:54;;;;;;;2.60;2.40;;;15.80;99.90;;;;;;4988365;28;20452;-48
2022/09/25 12:28:35;;;;;;;2.67;2.47;;;15.80;99.90;;;;;;4988656;28;20544;-47
2022/09/25 12:31:13;;;;;;;2.70;2.50;;;15.80;99.90;;;;;;4988379;28;20447;-47
2022/09/25 12:33:51;;;;;;;2.60;2.40;;;15.70;99.90;;;;;;4988473;28;20479;-47
2022/09/25 12:36:23;;;;;;;3.00;2.80;;;15.70;99.90;;;;;;4988531;28;20590;-47
2022/09/25 12:38:56;;;;;;;3.37;2.50;;;15.70;99.90;;;;;;4988511;28;20891;-48
2022/09/25 12:41:32;;;;;;;3.03;2.60;;;15.70;99.90;;;;;;4988444;28;20503;-49
2022/09/25 12:44:06;;;;;;;3.80;2.83;;;15.70;99.90;;;;;;4988236;28;20878;-48
2022/09/25 12:46:40;;;;;;;3.23;2.90;;;15.60;99.90;;;;;;4988239;28;20608;-48
2022/09/25 12:49:14;;;;;;;2.97;2.70;;;15.70;99.90;;;;;;4991442;28;20835;-48
2022/09/25 12:51:45;;;;;;;2.83;2.53;;;15.60;99.90;;;;;;4991471;28;20478;-48
2022/09/25 12:54:21;;;;;;;2.50;2.30;;;15.60;99.90;;;;;;4991576;28;20515;-49
2022/09/25 12:56:55;;;;;;;2.60;2.40;;;15.50;99.90;;;;;;4991789;28;20467;-48
2022/09/25 12:59:29;;;;;;;2.50;2.20;;;15.60;99.90;;;;;;4991132;28;21016;-48
2022/09/25 13:02:02;;;;;;;2.80;2.40;;;15.60;99.90;;;;;;4991361;28;20455;-48
2022/09/25 13:04:56;;;;;;;3.50;2.83;;;15.60;99.90;;;;;;4991058;28;20472;-48
2022/09/25 13:07:32;;;;;;;3.40;2.83;;;15.70;99.90;;;;;;4991576;28;20555;-49
2022/09/25 13:10:02;;;;;;;2.80;2.50;;;15.70;99.90;;;;;;4991396;28;20479;-48
2022/09/25 13:12:33;;;;;;;3.50;3.20;;;15.80;99.90;;;;;;4991161;28;20472;-48
2022/09/25 13:15:08;;;;;;;3.70;3.30;;;16.00;99.90;;;;;;4991158;28;20519;-49
2022/09/25 13:17:35;;;;;;;3.07;2.60;;;16.10;99.90;;;;;;4991202;28;20495;-48
2022/09/25 13:20:41;;;;;;;4.00;3.17;;;16.20;99.90;;;;;;4991157;28;20482;-49
2022/09/25 13:23:13;;;;;;;2.63;2.40;;;16.30;99.90;;;;;;4991372;28;20444;-48
2022/09/25 13:25:43;;;;;;;3.33;3.03;;;16.10;99.90;;;;;;4990717;28;20437;-50